sensor_id;sensor_type;location;lat;lon;timestamp;pressure;altitude;pressure_sealevel;temperature;humidity
3428;BME280;1727;42.624;23.406;2023-02-18T00:01:17;95616.13;;;6.23;65.89
3428;BME280;1727;42.624;23.406;2023-02-18T00:03:44;95619.00;;;6.18;66.02
3428;BME280;1727;42.624;23.406;2023-02-18T00:06:12;95612.13;;;6.17;66.69
3428;BME280;1727;42.624;23.406;2023-02-18T00:08:40;95614.22;;;6.11;66.23
3428;BME280;1727;42.624;23.406;2023-02-18T00:11:06;95616.00;;;6.10;66.32
3428;BME280;1727;42.624;23.406;2023-02-18T00:13:35;95604.75;;;6.10;66.32
3428;BME280;1727;42.624;23.406;2023-02-18T00:16:02;95600.44;;;6.09;66.77
3428;BME280;1727;42.624;23.406;2023-02-18T00:18:29;95593.47;;;6.09;66.48
3428;BME280;1727;42.624;23.406;2023-02-18T00:20:56;95592.63;;;6.09;66.17
3428;BME280;1727;42.624;23.406;2023-02-18T00:23:24;95591.00;;;6.06;67.09
3428;BME280;1727;42.624;23.406;2023-02-18T00:25:58;95580.59;;;6.06;67.11
3428;BME280;1727;42.624;23.406;2023-02-18T00:28:26;95584.91;;;6.07;66.59
3428;BME280;1727;42.624;23.406;2023-02-18T00:30:54;95571.19;;;6.04;67.10
3428;BME280;1727;42.624;23.406;2023-02-18T00:33:21;95564.97;;;6.06;67.76
3428;BME280;1727;42.624;23.406;2023-02-18T00:35:48;95561.88;;;6.00;67.38
3428;BME280;1727;42.624;23.406;2023-02-18T00:38:15;95558.34;;;6.01;67.84
3428;BME280;1727;42.624;23.406;2023-02-18T00:40:42;95551.44;;;6.00;67.13
3428;BME280;1727;42.624;23.406;2023-02-18T00:43:09;95556.56;;;6.01;67.10
3428;BME280;1727;42.624;23.406;2023-02-18T00:45:36;95560.09;;;6.00;67.25
3428;BME280;1727;42.624;23.406;2023-02-18T00:48:04;95559.00;;;5.88;67.65
3428;BME280;1727;42.624;23.406;2023-02-18T00:50:31;95551.38;;;5.85;68.07
3428;BME280;1727;42.624;23.406;2023-02-18T00:52:58;95556.84;;;5.81;67.53
3428;BME280;1727;42.624;23.406;2023-02-18T00:55:24;95560.38;;;5.80;67.44
3428;BME280;1727;42.624;23.406;2023-02-18T00:57:51;95563.91;;;5.79;67.52
3428;BME280;1727;42.624;23.406;2023-02-18T01:00:18;95555.47;;;5.74;68.23
3428;BME280;1727;42.624;23.406;2023-02-18T01:02:45;95555.63;;;5.71;68.49
3428;BME280;1727;42.624;23.406;2023-02-18T01:05:13;95564.38;;;5.70;68.73
3428;BME280;1727;42.624;23.406;2023-02-18T01:07:40;95564.88;;;5.60;68.35
3428;BME280;1727;42.624;23.406;2023-02-18T01:10:07;95570.19;;;5.59;68.72
3428;BME280;1727;42.624;23.406;2023-02-18T01:12:34;95557.16;;;5.59;68.87
3428;BME280;1727;42.624;23.406;2023-02-18T01:15:01;95563.88;;;5.63;68.76
3428;BME280;1727;42.624;23.406;2023-02-18T01:17:28;95561.19;;;5.65;68.86
3428;BME280;1727;42.624;23.406;2023-02-18T01:19:55;95557.66;;;5.66;67.87
3428;BME280;1727;42.624;23.406;2023-02-18T01:22:23;95562.88;;;5.66;68.37
3428;BME280;1727;42.624;23.406;2023-02-18T01:24:49;95563.88;;;5.63;68.08
3428;BME280;1727;42.624;23.406;2023-02-18T01:27:16;95559.50;;;5.64;67.90
3428;BME280;1727;42.624;23.406;2023-02-18T01:29:43;95557.91;;;5.61;67.76
3428;BME280;1727;42.624;23.406;2023-02-18T01:32:10;95559.94;;;5.56;68.37
3428;BME280;1727;42.624;23.406;2023-02-18T01:34:36;95547.94;;;5.53;68.22
3428;BME280;1727;42.624;23.406;2023-02-18T01:37:03;95548.16;;;5.49;68.25
3428;BME280;1727;42.624;23.406;2023-02-18T01:39:31;95551.56;;;5.51;69.26
3428;BME280;1727;42.624;23.406;2023-02-18T01:41:58;95554.28;;;5.48;69.26
3428;BME280;1727;42.624;23.406;2023-02-18T01:44:26;95551.19;;;5.41;69.88
3428;BME280;1727;42.624;23.406;2023-02-18T01:46:54;95548.75;;;5.38;69.78
3428;BME280;1727;42.624;23.406;2023-02-18T01:49:24;95562.84;;;5.34;70.52
3428;BME280;1727;42.624;23.406;2023-02-18T01:51:54;95563.44;;;5.23;71.47
3428;BME280;1727;42.624;23.406;2023-02-18T01:54:26;95557.84;;;5.14;72.05
3428;BME280;1727;42.624;23.406;2023-02-18T01:56:59;95564.81;;;5.13;70.76
3428;BME280;1727;42.624;23.406;2023-02-18T01:59:30;95572.03;;;5.08;72.00
3428;BME280;1727;42.624;23.406;2023-02-18T02:01:59;95574.56;;;5.10;71.45
3428;BME280;1727;42.624;23.406;2023-02-18T02:04:26;95578.06;;;5.09;71.84
3428;BME280;1727;42.624;23.406;2023-02-18T02:06:53;95572.88;;;5.09;72.08
3428;BME280;1727;42.624;23.406;2023-02-18T02:09:21;95578.41;;;5.03;71.62
3428;BME280;1727;42.624;23.406;2023-02-18T02:12:13;95570.16;;;4.94;72.54
3428;BME280;1727;42.624;23.406;2023-02-18T02:17:50;95559.63;;;4.80;73.36
3428;BME280;1727;42.624;23.406;2023-02-18T02:20:51;95549.47;;;4.76;73.05
3428;BME280;1727;42.624;23.406;2023-02-18T02:26:57;95553.22;;;4.70;73.90
3428;BME280;1727;42.624;23.406;2023-02-18T02:29:59;95563.78;;;4.67;73.68
3428;BME280;1727;42.624;23.406;2023-02-18T02:32:55;95559.41;;;4.68;74.07
3428;BME280;1727;42.624;23.406;2023-02-18T02:35:29;95556.75;;;4.69;74.47
3428;BME280;1727;42.624;23.406;2023-02-18T02:38:02;95552.16;;;4.74;74.13
3428;BME280;1727;42.624;23.406;2023-02-18T02:40:35;95550.16;;;4.79;74.73
3428;BME280;1727;42.624;23.406;2023-02-18T02:43:11;95537.56;;;4.87;73.34
3428;BME280;1727;42.624;23.406;2023-02-18T02:45:47;95538.25;;;4.91;73.05
3428;BME280;1727;42.624;23.406;2023-02-18T02:48:23;95529.41;;;4.95;72.23
3428;BME280;1727;42.624;23.406;2023-02-18T02:50:56;95535.28;;;4.98;72.29
3428;BME280;1727;42.624;23.406;2023-02-18T02:53:30;95528.41;;;4.97;72.13
3428;BME280;1727;42.624;23.406;2023-02-18T02:55:59;95525.03;;;4.95;72.76
3428;BME280;1727;42.624;23.406;2023-02-18T02:58:26;95531.06;;;4.96;72.15
3428;BME280;1727;42.624;23.406;2023-02-18T03:01:06;95526.56;;;5.00;72.08
3428;BME280;1727;42.624;23.406;2023-02-18T03:04:01;95527.31;;;5.02;71.98
3428;BME280;1727;42.624;23.406;2023-02-18T03:09:30;95537.28;;;5.09;71.26
3428;BME280;1727;42.624;23.406;2023-02-18T03:12:05;95548.38;;;5.13;71.34
3428;BME280;1727;42.624;23.406;2023-02-18T03:14:40;95545.19;;;5.08;71.15
3428;BME280;1727;42.624;23.406;2023-02-18T03:17:14;95545.19;;;5.08;70.89
3428;BME280;1727;42.624;23.406;2023-02-18T03:19:46;95555.34;;;5.12;70.25
3428;BME280;1727;42.624;23.406;2023-02-18T03:22:19;95552.41;;;5.03;70.87
3428;BME280;1727;42.624;23.406;2023-02-18T03:24:50;95556.75;;;5.02;71.53
3428;BME280;1727;42.624;23.406;2023-02-18T03:27:22;95570.97;;;4.45;72.54
3428;BME280;1727;42.624;23.406;2023-02-18T03:29:52;95568.75;;;4.20;73.41
3428;BME280;1727;42.624;23.406;2023-02-18T03:32:21;95577.22;;;4.23;74.09
3428;BME280;1727;42.624;23.406;2023-02-18T03:34:52;95584.84;;;4.09;73.61
3428;BME280;1727;42.624;23.406;2023-02-18T03:37:21;95601.31;;;3.91;74.55
3428;BME280;1727;42.624;23.406;2023-02-18T03:39:51;95600.41;;;3.73;75.99
3428;BME280;1727;42.624;23.406;2023-02-18T03:42:24;95603.16;;;3.70;76.46
3428;BME280;1727;42.624;23.406;2023-02-18T03:44:51;95605.66;;;3.71;75.80
3428;BME280;1727;42.624;23.406;2023-02-18T03:47:18;95605.59;;;3.73;75.76
3428;BME280;1727;42.624;23.406;2023-02-18T03:49:45;95615.50;;;3.84;75.35
3428;BME280;1727;42.624;23.406;2023-02-18T03:52:12;95612.38;;;3.94;75.31
3428;BME280;1727;42.624;23.406;2023-02-18T03:54:40;95616.59;;;3.97;75.02
3428;BME280;1727;42.624;23.406;2023-02-18T03:57:06;95621.28;;;4.08;75.34
3428;BME280;1727;42.624;23.406;2023-02-18T03:59:33;95623.50;;;4.15;75.04
3428;BME280;1727;42.624;23.406;2023-02-18T04:02:00;95613.81;;;4.19;75.54
3428;BME280;1727;42.624;23.406;2023-02-18T04:04:27;95606.84;;;4.19;74.93
3428;BME280;1727;42.624;23.406;2023-02-18T04:06:54;95606.72;;;4.22;75.40
3428;BME280;1727;42.624;23.406;2023-02-18T04:09:21;95603.13;;;4.25;75.14
3428;BME280;1727;42.624;23.406;2023-02-18T04:11:49;95599.38;;;4.30;74.60
3428;BME280;1727;42.624;23.406;2023-02-18T04:14:16;95588.06;;;4.31;75.22
3428;BME280;1727;42.624;23.406;2023-02-18T04:16:42;95589.63;;;4.35;75.73
3428;BME280;1727;42.624;23.406;2023-02-18T04:19:09;95579.16;;;4.37;75.10
3428;BME280;1727;42.624;23.406;2023-02-18T04:21:36;95577.47;;;4.36;74.25
3428;BME280;1727;42.624;23.406;2023-02-18T04:24:03;95579.06;;;4.39;74.64
3428;BME280;1727;42.624;23.406;2023-02-18T04:26:30;95567.78;;;4.40;74.88
3428;BME280;1727;42.624;23.406;2023-02-18T04:28:58;95565.84;;;4.43;74.85
3428;BME280;1727;42.624;23.406;2023-02-18T04:31:25;95556.22;;;4.45;75.23
3428;BME280;1727;42.624;23.406;2023-02-18T04:33:52;95561.19;;;4.50;74.51
3428;BME280;1727;42.624;23.406;2023-02-18T04:36:18;95560.94;;;4.54;74.48
3428;BME280;1727;42.624;23.406;2023-02-18T04:38:45;95570.34;;;4.57;74.48
3428;BME280;1727;42.624;23.406;2023-02-18T04:41:12;95566.81;;;4.58;73.66
3428;BME280;1727;42.624;23.406;2023-02-18T04:43:39;95572.03;;;4.58;73.35
3428;BME280;1727;42.624;23.406;2023-02-18T04:46:07;95561.31;;;4.29;74.67
3428;BME280;1727;42.624;23.406;2023-02-18T04:48:34;95572.34;;;4.34;75.06
3428;BME280;1727;42.624;23.406;2023-02-18T04:51:00;95573.03;;;4.38;74.18
3428;BME280;1727;42.624;23.406;2023-02-18T04:53:27;95579.00;;;4.40;74.57
3428;BME280;1727;42.624;23.406;2023-02-18T04:55:54;95578.84;;;4.43;74.13
3428;BME280;1727;42.624;23.406;2023-02-18T04:58:21;95573.88;;;4.39;74.03
3428;BME280;1727;42.624;23.406;2023-02-18T05:00:48;95581.84;;;4.35;73.96
3428;BME280;1727;42.624;23.406;2023-02-18T05:03:16;95587.16;;;4.32;74.32
3428;BME280;1727;42.624;23.406;2023-02-18T05:05:43;95577.91;;;4.27;74.50
3428;BME280;1727;42.624;23.406;2023-02-18T05:08:10;95589.13;;;4.27;75.69
3428;BME280;1727;42.624;23.406;2023-02-18T05:10:37;95589.06;;;4.29;76.21
3428;BME280;1727;42.624;23.406;2023-02-18T05:13:04;95595.16;;;4.28;75.46
3428;BME280;1727;42.624;23.406;2023-02-18T05:15:31;95597.63;;;4.31;75.24
3428;BME280;1727;42.624;23.406;2023-02-18T05:17:58;95590.66;;;4.31;75.14
3428;BME280;1727;42.624;23.406;2023-02-18T05:20:26;95590.06;;;4.26;76.05
3428;BME280;1727;42.624;23.406;2023-02-18T05:22:53;95577.97;;;4.25;75.94
3428;BME280;1727;42.624;23.406;2023-02-18T05:25:19;95591.81;;;4.26;75.95
3428;BME280;1727;42.624;23.406;2023-02-18T05:27:46;95585.78;;;4.25;76.03
3428;BME280;1727;42.624;23.406;2023-02-18T05:30:13;95597.69;;;4.29;75.25
3428;BME280;1727;42.624;23.406;2023-02-18T05:32:40;95582.94;;;4.30;76.72
3428;BME280;1727;42.624;23.406;2023-02-18T05:35:07;95565.84;;;4.26;75.29
3428;BME280;1727;42.624;23.406;2023-02-18T05:37:35;95563.31;;;4.24;75.76
3428;BME280;1727;42.624;23.406;2023-02-18T05:40:02;95571.72;;;4.29;76.36
3428;BME280;1727;42.624;23.406;2023-02-18T05:42:29;95574.81;;;4.38;76.08
3428;BME280;1727;42.624;23.406;2023-02-18T05:44:57;95583.03;;;4.46;76.00
3428;BME280;1727;42.624;23.406;2023-02-18T05:47:24;95582.72;;;4.52;75.96
3428;BME280;1727;42.624;23.406;2023-02-18T05:49:51;95590.13;;;4.59;76.22
3428;BME280;1727;42.624;23.406;2023-02-18T05:52:17;95582.97;;;4.64;75.47
3428;BME280;1727;42.624;23.406;2023-02-18T05:54:46;95581.66;;;4.73;75.36
3428;BME280;1727;42.624;23.406;2023-02-18T05:57:13;95591.75;;;4.79;73.65
3428;BME280;1727;42.624;23.406;2023-02-18T05:59:40;95590.31;;;4.39;74.52
3428;BME280;1727;42.624;23.406;2023-02-18T06:02:07;95597.19;;;4.40;74.63
3428;BME280;1727;42.624;23.406;2023-02-18T06:04:34;95604.53;;;4.49;75.49
3428;BME280;1727;42.624;23.406;2023-02-18T06:07:00;95603.97;;;4.60;74.89
3428;BME280;1727;42.624;23.406;2023-02-18T06:09:27;95605.06;;;4.73;74.74
3428;BME280;1727;42.624;23.406;2023-02-18T06:11:56;95607.63;;;4.90;76.11
3428;BME280;1727;42.624;23.406;2023-02-18T06:14:22;95601.72;;;5.04;74.12
3428;BME280;1727;42.624;23.406;2023-02-18T06:16:49;95593.34;;;5.15;75.36
3428;BME280;1727;42.624;23.406;2023-02-18T06:19:16;95603.97;;;5.27;73.84
3428;BME280;1727;42.624;23.406;2023-02-18T06:21:43;95609.44;;;5.39;72.95
3428;BME280;1727;42.624;23.406;2023-02-18T06:24:09;95595.72;;;5.19;73.68
3428;BME280;1727;42.624;23.406;2023-02-18T06:26:36;95591.06;;;5.26;73.11
3428;BME280;1727;42.624;23.406;2023-02-18T06:29:04;95600.78;;;5.38;74.06
3428;BME280;1727;42.624;23.406;2023-02-18T06:31:31;95594.66;;;5.39;73.46
3428;BME280;1727;42.624;23.406;2023-02-18T06:33:58;95591.56;;;5.48;72.84
3428;BME280;1727;42.624;23.406;2023-02-18T06:36:25;95591.09;;;5.57;74.46
3428;BME280;1727;42.624;23.406;2023-02-18T06:38:51;95589.00;;;5.64;73.72
3428;BME280;1727;42.624;23.406;2023-02-18T06:41:20;95583.00;;;5.78;74.13
3428;BME280;1727;42.624;23.406;2023-02-18T06:43:47;95572.38;;;5.82;71.98
3428;BME280;1727;42.624;23.406;2023-02-18T06:46:15;95581.38;;;5.93;71.54
3428;BME280;1727;42.624;23.406;2023-02-18T06:48:42;95582.44;;;6.04;72.27
3428;BME280;1727;42.624;23.406;2023-02-18T06:51:09;95585.31;;;6.15;72.61
3428;BME280;1727;42.624;23.406;2023-02-18T06:53:35;95586.72;;;6.21;70.14
3428;BME280;1727;42.624;23.406;2023-02-18T06:56:03;95575.09;;;6.27;69.80
3428;BME280;1727;42.624;23.406;2023-02-18T06:58:29;95567.88;;;6.32;69.77
3428;BME280;1727;42.624;23.406;2023-02-18T07:00:56;95571.06;;;6.37;69.95
3428;BME280;1727;42.624;23.406;2023-02-18T07:03:24;95567.34;;;6.41;68.75
3428;BME280;1727;42.624;23.406;2023-02-18T07:05:51;95572.78;;;6.52;68.64
3428;BME280;1727;42.624;23.406;2023-02-18T07:08:18;95570.00;;;6.55;68.72
3428;BME280;1727;42.624;23.406;2023-02-18T07:10:45;95584.56;;;6.73;68.24
3428;BME280;1727;42.624;23.406;2023-02-18T07:13:12;95583.56;;;6.76;67.31
3428;BME280;1727;42.624;23.406;2023-02-18T07:15:39;95584.94;;;6.81;68.00
3428;BME280;1727;42.624;23.406;2023-02-18T07:18:06;95568.41;;;6.97;68.15
3428;BME280;1727;42.624;23.406;2023-02-18T07:20:34;95574.06;;;6.89;68.02
3428;BME280;1727;42.624;23.406;2023-02-18T07:23:01;95570.47;;;7.06;67.94
3428;BME280;1727;42.624;23.406;2023-02-18T07:25:28;95574.38;;;6.99;67.29
3428;BME280;1727;42.624;23.406;2023-02-18T07:27:54;95569.81;;;7.02;66.55
3428;BME280;1727;42.624;23.406;2023-02-18T07:30:21;95574.38;;;7.27;66.16
3428;BME280;1727;42.624;23.406;2023-02-18T07:32:48;95560.66;;;7.09;65.50
3428;BME280;1727;42.624;23.406;2023-02-18T07:35:15;95564.78;;;7.28;66.30
3428;BME280;1727;42.624;23.406;2023-02-18T07:37:48;95564.50;;;7.32;66.34
3428;BME280;1727;42.624;23.406;2023-02-18T07:40:17;95579.88;;;7.37;64.99
3428;BME280;1727;42.624;23.406;2023-02-18T07:42:45;95573.66;;;7.25;64.33
3428;BME280;1727;42.624;23.406;2023-02-18T07:45:13;95587.16;;;7.32;64.72
3428;BME280;1727;42.624;23.406;2023-02-18T07:47:40;95584.94;;;7.26;63.92
3428;BME280;1727;42.624;23.406;2023-02-18T07:50:08;95590.69;;;7.17;64.00
3428;BME280;1727;42.624;23.406;2023-02-18T07:52:35;95590.03;;;7.27;64.58
3428;BME280;1727;42.624;23.406;2023-02-18T07:55:03;95595.81;;;7.46;64.73
3428;BME280;1727;42.624;23.406;2023-02-18T07:57:30;95596.56;;;7.63;63.57
3428;BME280;1727;42.624;23.406;2023-02-18T07:59:57;95593.16;;;7.75;61.55
3428;BME280;1727;42.624;23.406;2023-02-18T08:02:24;95599.22;;;7.90;60.91
3428;BME280;1727;42.624;23.406;2023-02-18T08:04:51;95606.19;;;8.03;60.52
3428;BME280;1727;42.624;23.406;2023-02-18T08:07:19;95589.19;;;8.11;59.59
3428;BME280;1727;42.624;23.406;2023-02-18T08:09:47;95590.59;;;8.29;59.81
3428;BME280;1727;42.624;23.406;2023-02-18T08:12:16;95576.47;;;8.46;59.53
3428;BME280;1727;42.624;23.406;2023-02-18T08:14:43;95579.31;;;8.43;58.39
3428;BME280;1727;42.624;23.406;2023-02-18T08:17:10;95587.59;;;8.62;58.60
3428;BME280;1727;42.624;23.406;2023-02-18T08:19:36;95586.72;;;8.88;58.24
3428;BME280;1727;42.624;23.406;2023-02-18T08:22:03;95575.63;;;9.10;58.31
3428;BME280;1727;42.624;23.406;2023-02-18T08:24:30;95571.56;;;9.31;56.24
3428;BME280;1727;42.624;23.406;2023-02-18T08:26:57;95568.91;;;9.44;55.15
3428;BME280;1727;42.624;23.406;2023-02-18T08:29:25;95575.28;;;9.66;55.26
3428;BME280;1727;42.624;23.406;2023-02-18T08:31:52;95575.34;;;9.89;54.09
3428;BME280;1727;42.624;23.406;2023-02-18T08:34:21;95571.56;;;10.17;54.45
3428;BME280;1727;42.624;23.406;2023-02-18T08:36:48;95560.72;;;10.35;53.51
3428;BME280;1727;42.624;23.406;2023-02-18T08:39:15;95563.06;;;10.50;52.65
3428;BME280;1727;42.624;23.406;2023-02-18T08:41:41;95559.72;;;10.48;52.08
3428;BME280;1727;42.624;23.406;2023-02-18T08:44:08;95553.06;;;10.55;52.73
3428;BME280;1727;42.624;23.406;2023-02-18T08:46:36;95543.03;;;10.61;52.23
3428;BME280;1727;42.624;23.406;2023-02-18T08:49:03;95542.69;;;10.65;51.53
3428;BME280;1727;42.624;23.406;2023-02-18T08:51:30;95543.28;;;10.58;51.86
3428;BME280;1727;42.624;23.406;2023-02-18T08:53:57;95554.16;;;10.64;51.04
3428;BME280;1727;42.624;23.406;2023-02-18T08:56:24;95544.84;;;10.60;50.59
3428;BME280;1727;42.624;23.406;2023-02-18T08:58:51;95546.59;;;10.48;50.32
3428;BME280;1727;42.624;23.406;2023-02-18T09:01:17;95559.22;;;10.43;51.40
3428;BME280;1727;42.624;23.406;2023-02-18T09:03:46;95560.56;;;10.25;52.50
3428;BME280;1727;42.624;23.406;2023-02-18T09:06:13;95561.13;;;10.05;52.53
3428;BME280;1727;42.624;23.406;2023-02-18T09:08:40;95561.50;;;10.11;52.89
3428;BME280;1727;42.624;23.406;2023-02-18T09:11:06;95562.88;;;10.17;51.98
3428;BME280;1727;42.624;23.406;2023-02-18T09:13:35;95563.91;;;10.27;56.13
3428;BME280;1727;42.624;23.406;2023-02-18T09:16:03;95571.78;;;10.27;51.89
3428;BME280;1727;42.624;23.406;2023-02-18T09:18:31;95575.38;;;10.13;52.30
3428;BME280;1727;42.624;23.406;2023-02-18T09:21:02;95565.56;;;10.28;52.68
3428;BME280;1727;42.624;23.406;2023-02-18T09:23:30;95567.81;;;10.45;51.40
3428;BME280;1727;42.624;23.406;2023-02-18T09:25:58;95555.44;;;10.59;51.75
3428;BME280;1727;42.624;23.406;2023-02-18T09:28:26;95551.84;;;10.48;50.50
3428;BME280;1727;42.624;23.406;2023-02-18T09:30:52;95561.69;;;10.69;50.32
3428;BME280;1727;42.624;23.406;2023-02-18T09:33:19;95559.47;;;10.86;51.06
3428;BME280;1727;42.624;23.406;2023-02-18T09:35:46;95557.94;;;10.95;49.40
3428;BME280;1727;42.624;23.406;2023-02-18T09:38:16;95540.50;;;10.94;49.56
3428;BME280;1727;42.624;23.406;2023-02-18T09:40:51;95539.66;;;10.94;48.87
3428;BME280;1727;42.624;23.406;2023-02-18T09:43:23;95529.34;;;11.14;49.32
3428;BME280;1727;42.624;23.406;2023-02-18T09:45:52;95532.56;;;11.18;48.16
3428;BME280;1727;42.624;23.406;2023-02-18T09:48:25;95527.66;;;11.25;48.16
3428;BME280;1727;42.624;23.406;2023-02-18T09:50:53;95529.81;;;11.42;47.44
3428;BME280;1727;42.624;23.406;2023-02-18T09:53:23;95536.16;;;11.51;46.24
3428;BME280;1727;42.624;23.406;2023-02-18T09:55:51;95534.84;;;11.67;46.88
3428;BME280;1727;42.624;23.406;2023-02-18T09:58:20;95537.09;;;11.83;47.42
3428;BME280;1727;42.624;23.406;2023-02-18T10:00:49;95532.69;;;11.95;46.31
3428;BME280;1727;42.624;23.406;2023-02-18T10:03:20;95531.50;;;11.88;46.06
3428;BME280;1727;42.624;23.406;2023-02-18T10:05:55;95524.09;;;11.82;47.49
3428;BME280;1727;42.624;23.406;2023-02-18T10:08:27;95519.91;;;11.79;46.31
3428;BME280;1727;42.624;23.406;2023-02-18T10:10:54;95521.69;;;11.78;47.12
3428;BME280;1727;42.624;23.406;2023-02-18T10:13:23;95515.94;;;11.73;46.38
3428;BME280;1727;42.624;23.406;2023-02-18T10:15:51;95516.44;;;11.78;46.80
3428;BME280;1727;42.624;23.406;2023-02-18T10:18:25;95513.81;;;11.78;46.64
3428;BME280;1727;42.624;23.406;2023-02-18T10:20:59;95517.84;;;11.94;46.15
3428;BME280;1727;42.624;23.406;2023-02-18T10:23:32;95518.53;;;12.07;46.99
3428;BME280;1727;42.624;23.406;2023-02-18T10:26:02;95516.09;;;12.26;46.33
3428;BME280;1727;42.624;23.406;2023-02-18T10:28:30;95511.84;;;12.46;45.08
3428;BME280;1727;42.624;23.406;2023-02-18T10:31:01;95507.22;;;12.59;44.47
3428;BME280;1727;42.624;23.406;2023-02-18T10:33:34;95497.41;;;12.82;45.43
3428;BME280;1727;42.624;23.406;2023-02-18T10:36:23;95497.06;;;12.96;44.55
3428;BME280;1727;42.624;23.406;2023-02-18T10:39:04;95495.44;;;12.75;44.49
3428;BME280;1727;42.624;23.406;2023-02-18T10:41:38;95500.78;;;12.94;44.35
3428;BME280;1727;42.624;23.406;2023-02-18T10:44:15;95493.16;;;13.12;44.63
3428;BME280;1727;42.624;23.406;2023-02-18T10:46:48;95481.91;;;13.30;44.01
3428;BME280;1727;42.624;23.406;2023-02-18T10:49:38;95474.59;;;13.44;43.99
3428;BME280;1727;42.624;23.406;2023-02-18T10:52:13;95471.47;;;13.59;43.53
3428;BME280;1727;42.624;23.406;2023-02-18T10:54:57;95461.06;;;13.68;43.43
3428;BME280;1727;42.624;23.406;2023-02-18T10:57:25;95457.34;;;13.80;43.30
3428;BME280;1727;42.624;23.406;2023-02-18T10:59:57;95443.63;;;13.95;42.51
3428;BME280;1727;42.624;23.406;2023-02-18T11:02:27;95438.63;;;14.02;42.87
3428;BME280;1727;42.624;23.406;2023-02-18T11:04:56;95451.84;;;14.21;42.94
3428;BME280;1727;42.624;23.406;2023-02-18T11:07:27;95439.34;;;14.33;42.38
3428;BME280;1727;42.624;23.406;2023-02-18T11:09:57;95441.00;;;14.15;41.05
3428;BME280;1727;42.624;23.406;2023-02-18T11:12:29;95430.31;;;14.07;41.28
3428;BME280;1727;42.624;23.406;2023-02-18T11:15:14;95426.97;;;14.05;40.93
3428;BME280;1727;42.624;23.406;2023-02-18T11:17:42;95427.25;;;14.11;41.65
3428;BME280;1727;42.624;23.406;2023-02-18T11:20:22;95412.94;;;14.04;41.00
3428;BME280;1727;42.624;23.406;2023-02-18T11:22:49;95415.31;;;14.17;42.42
3428;BME280;1727;42.624;23.406;2023-02-18T11:25:22;95408.94;;;14.19;41.49
3428;BME280;1727;42.624;23.406;2023-02-18T11:27:51;95400.03;;;14.20;41.94
3428;BME280;1727;42.624;23.406;2023-02-18T11:30:22;95389.59;;;14.29;55.24
3428;BME280;1727;42.624;23.406;2023-02-18T11:32:54;95392.66;;;14.53;44.00
3428;BME280;1727;42.624;23.406;2023-02-18T11:35:23;95383.09;;;14.52;42.03
3428;BME280;1727;42.624;23.406;2023-02-18T11:37:51;95372.91;;;14.57;41.90
3428;BME280;1727;42.624;23.406;2023-02-18T11:40:24;95366.66;;;14.58;41.60
3428;BME280;1727;42.624;23.406;2023-02-18T11:42:51;95367.59;;;14.67;41.63
3428;BME280;1727;42.624;23.406;2023-02-18T11:45:30;95366.19;;;14.72;40.89
3428;BME280;1727;42.624;23.406;2023-02-18T11:47:59;95365.63;;;14.78;39.81
3428;BME280;1727;42.624;23.406;2023-02-18T11:50:32;95364.13;;;14.76;40.26
3428;BME280;1727;42.624;23.406;2023-02-18T11:53:24;95348.69;;;14.71;39.47
3428;BME280;1727;42.624;23.406;2023-02-18T11:55:55;95350.63;;;14.69;38.57
3428;BME280;1727;42.624;23.406;2023-02-18T11:58:25;95347.69;;;14.72;38.82
3428;BME280;1727;42.624;23.406;2023-02-18T12:00:54;95340.59;;;14.82;39.03
3428;BME280;1727;42.624;23.406;2023-02-18T12:03:29;95338.44;;;14.96;39.64
3428;BME280;1727;42.624;23.406;2023-02-18T12:06:02;95332.97;;;15.07;39.62
3428;BME280;1727;42.624;23.406;2023-02-18T12:08:35;95330.72;;;15.12;38.58
3428;BME280;1727;42.624;23.406;2023-02-18T12:11:11;95322.50;;;15.15;38.61
3428;BME280;1727;42.624;23.406;2023-02-18T12:13:46;95315.09;;;15.18;37.91
3428;BME280;1727;42.624;23.406;2023-02-18T12:16:23;95317.81;;;15.27;37.65
3428;BME280;1727;42.624;23.406;2023-02-18T12:19:09;95312.00;;;15.23;36.30
3428;BME280;1727;42.624;23.406;2023-02-18T12:21:47;95311.09;;;15.32;36.80
3428;BME280;1727;42.624;23.406;2023-02-18T12:24:30;95305.78;;;15.42;36.32
3428;BME280;1727;42.624;23.406;2023-02-18T12:27:06;95306.78;;;15.59;36.39
3428;BME280;1727;42.624;23.406;2023-02-18T12:29:55;95295.63;;;15.65;36.55
3428;BME280;1727;42.624;23.406;2023-02-18T12:32:35;95300.41;;;15.52;37.06
3428;BME280;1727;42.624;23.406;2023-02-18T12:35:21;95278.28;;;15.53;37.07
3428;BME280;1727;42.624;23.406;2023-02-18T12:38:05;95280.63;;;15.56;37.04
3428;BME280;1727;42.624;23.406;2023-02-18T12:40:47;95279.59;;;15.66;36.86
3428;BME280;1727;42.624;23.406;2023-02-18T12:43:26;95275.44;;;15.64;36.70
3428;BME280;1727;42.624;23.406;2023-02-18T12:46:18;95261.66;;;15.78;37.13
3428;BME280;1727;42.624;23.406;2023-02-18T12:49:12;95260.47;;;15.90;37.20
3428;BME280;1727;42.624;23.406;2023-02-18T12:51:54;95262.81;;;15.93;37.35
3428;BME280;1727;42.624;23.406;2023-02-18T12:54:38;95258.84;;;15.97;37.66
3428;BME280;1727;42.624;23.406;2023-02-18T12:57:23;95260.53;;;15.98;37.26
3428;BME280;1727;42.624;23.406;2023-02-18T13:00:19;95254.75;;;16.03;37.31
3428;BME280;1727;42.624;23.406;2023-02-18T13:06:03;95261.91;;;16.10;37.41
3428;BME280;1727;42.624;23.406;2023-02-18T13:08:43;95261.97;;;16.19;37.65
3428;BME280;1727;42.624;23.406;2023-02-18T13:11:23;95265.00;;;16.24;36.48
3428;BME280;1727;42.624;23.406;2023-02-18T13:13:58;95266.03;;;16.31;37.69
3428;BME280;1727;42.624;23.406;2023-02-18T13:16:30;95246.03;;;16.36;37.33
3428;BME280;1727;42.624;23.406;2023-02-18T13:19:06;95255.84;;;16.44;37.74
3428;BME280;1727;42.624;23.406;2023-02-18T13:21:41;95246.63;;;16.48;37.19
3428;BME280;1727;42.624;23.406;2023-02-18T13:24:12;95251.59;;;16.51;37.39
3428;BME280;1727;42.624;23.406;2023-02-18T13:26:42;95237.72;;;16.57;38.37
3428;BME280;1727;42.624;23.406;2023-02-18T13:29:21;95246.03;;;16.62;37.52
3428;BME280;1727;42.624;23.406;2023-02-18T13:32:00;95250.66;;;16.60;38.17
3428;BME280;1727;42.624;23.406;2023-02-18T13:34:35;95250.66;;;16.60;37.23
3428;BME280;1727;42.624;23.406;2023-02-18T13:37:13;95250.88;;;16.67;36.78
3428;BME280;1727;42.624;23.406;2023-02-18T13:39:47;95248.34;;;16.65;38.69
3428;BME280;1727;42.624;23.406;2023-02-18T13:42:25;95235.25;;;16.64;37.76
3428;BME280;1727;42.624;23.406;2023-02-18T13:47:50;95237.38;;;16.52;36.99
3428;BME280;1727;42.624;23.406;2023-02-18T13:50:32;95238.34;;;16.51;36.55